createdAt,value
2022-08-28T00:00:29.618Z,93.47
2022-08-28T00:02:58.221Z,94.12
2022-08-28T00:05:29.454Z,93.38
2022-08-28T00:07:58.087Z,92.71
2022-08-28T00:10:26.884Z,92.62
2022-08-28T00:12:57.407Z,92.46
2022-08-28T00:15:31.780Z,92.66
2022-08-28T00:17:59.975Z,92.11
2022-08-28T00:20:28.605Z,92.06
2022-08-28T00:22:56.523Z,91.72
2022-08-28T00:25:27.355Z,92.75
2022-08-28T00:27:57.439Z,92.79
2022-08-28T00:30:30.186Z,92.32
2022-08-28T00:33:01.281Z,92.24
2022-08-28T00:35:29.586Z,92.00
2022-08-28T00:37:57.941Z,92.17
2022-08-28T00:40:32.414Z,91.93
2022-08-28T00:43:01.768Z,91.80
2022-08-28T00:45:36.003Z,91.61
2022-08-28T00:48:06.741Z,91.69
2022-08-28T00:51:00.414Z,91.83
2022-08-28T00:53:29.053Z,92.06
2022-08-28T00:56:00.829Z,91.52
2022-08-28T00:58:28.519Z,91.97
2022-08-28T01:00:57.545Z,91.79
2022-08-28T01:03:26.543Z,91.69
2022-08-28T01:05:54.699Z,91.92
2022-08-28T01:08:23.038Z,91.89
2022-08-28T01:10:56.521Z,91.11
2022-08-28T01:13:26.769Z,91.31
2022-08-28T01:15:55.652Z,90.73
2022-08-28T01:18:26.058Z,90.59
2022-08-28T01:21:00.539Z,91.08
2022-08-28T01:23:45.674Z,91.56
2022-08-28T01:26:13.358Z,92.15
2022-08-28T01:28:41.315Z,92.29
2022-08-28T01:31:11.339Z,92.56
2022-08-28T01:33:41.368Z,92.96
2022-08-28T01:36:12.107Z,92.70
2022-08-28T01:38:40.328Z,93.11
2022-08-28T01:41:09.715Z,93.59
2022-08-28T01:43:37.445Z,93.54
2022-08-28T01:46:06.415Z,94.30
2022-08-28T01:48:36.798Z,93.24
2022-08-28T01:51:05.844Z,93.83
2022-08-28T01:53:34.740Z,93.66
2022-08-28T01:56:05.488Z,96.28
2022-08-28T01:58:38.274Z,96.95
2022-08-28T02:01:10.717Z,98.47
2022-08-28T02:03:38.629Z,100.00
2022-08-28T02:06:07.032Z,99.85
2022-08-28T02:08:34.689Z,98.65
2022-08-28T02:11:02.324Z,98.69
2022-08-28T02:13:29.987Z,97.31
2022-08-28T02:15:59.476Z,97.06
2022-08-28T02:18:27.216Z,96.12
2022-08-28T02:20:54.865Z,96.31
2022-08-28T02:23:22.870Z,96.34
2022-08-28T02:25:50.785Z,96.52
2022-08-28T02:28:18.586Z,96.15
2022-08-28T02:30:46.445Z,95.20
2022-08-28T02:33:16.074Z,94.37
2022-08-28T02:35:44.321Z,94.34
2022-08-28T02:38:12.123Z,94.06
2022-08-28T02:40:41.182Z,93.93
2022-08-28T02:43:08.861Z,94.27
2022-08-28T02:45:37.020Z,94.54
2022-08-28T02:48:05.373Z,94.45
2022-08-28T02:50:46.125Z,94.28
2022-08-28T02:53:14.460Z,93.73
2022-08-28T02:55:42.115Z,94.41
2022-08-28T02:58:10.109Z,94.13
2022-08-28T03:00:37.768Z,93.74
2022-08-28T03:03:05.511Z,94.92
2022-08-28T03:05:33.103Z,95.55
2022-08-28T03:08:02.090Z,95.82
2022-08-28T03:10:29.693Z,96.08
2022-08-28T03:12:57.376Z,97.13
2022-08-28T03:15:25.095Z,97.58
2022-08-28T03:17:52.745Z,97.02
2022-08-28T03:20:20.566Z,95.56
2022-08-28T03:23:07.898Z,94.20
2022-08-28T03:25:37.042Z,94.81
2022-08-28T03:28:05.012Z,94.38
2022-08-28T03:30:32.771Z,94.02
2022-08-28T03:33:01.072Z,93.43
2022-08-28T03:35:28.750Z,92.55
2022-08-28T03:37:56.355Z,93.00
2022-08-28T03:40:24.528Z,93.18
2022-08-28T03:42:53.796Z,93.36
2022-08-28T03:45:22.286Z,92.91
2022-08-28T03:47:50.852Z,92.88
2022-08-28T03:50:19.799Z,91.78
2022-08-28T03:52:47.678Z,92.64
2022-08-28T03:55:15.750Z,92.20
2022-08-28T03:57:43.473Z,91.70
2022-08-28T04:00:14.353Z,91.51
2022-08-28T04:02:42.502Z,91.96
2022-08-28T04:05:11.206Z,91.72
2022-08-28T04:07:39.379Z,91.26
2022-08-28T04:10:08.444Z,90.73
2022-08-28T04:12:37.092Z,90.34
2022-08-28T04:15:07.124Z,90.01
2022-08-28T04:17:38.591Z,89.90
2022-08-28T04:20:07.778Z,90.49
2022-08-28T04:22:37.097Z,90.07
2022-08-28T04:25:05.398Z,89.91
2022-08-28T04:27:33.106Z,90.05
2022-08-28T04:30:00.924Z,90.04
2022-08-28T04:32:28.888Z,89.50
2022-08-28T04:34:57.826Z,89.70
2022-08-28T04:37:25.468Z,89.69
2022-08-28T04:39:55.752Z,89.77
2022-08-28T04:42:23.521Z,89.90
2022-08-28T04:44:51.332Z,89.66
2022-08-28T04:47:18.969Z,89.42
2022-08-28T04:49:46.595Z,89.21
2022-08-28T04:52:15.601Z,89.29
2022-08-28T04:54:43.177Z,89.04
2022-08-28T04:57:10.785Z,89.11
2022-08-28T04:59:39.062Z,88.18
2022-08-28T05:02:06.752Z,88.20
2022-08-28T05:04:34.432Z,89.38
2022-08-28T05:07:02.149Z,89.23
2022-08-28T05:09:31.803Z,89.74
2022-08-28T05:12:03.723Z,90.15
2022-08-28T05:14:31.536Z,90.22
2022-08-28T05:16:59.834Z,89.88
2022-08-28T05:19:28.998Z,89.85
2022-08-28T05:21:56.645Z,89.99
2022-08-28T05:24:24.326Z,89.67
2022-08-28T05:26:53.300Z,88.75
2022-08-28T05:29:21.068Z,88.98
2022-08-28T05:31:52.953Z,89.31
2022-08-28T05:34:21.713Z,89.48
2022-08-28T05:36:49.386Z,88.70
2022-08-28T05:39:18.280Z,88.78
2022-08-28T05:41:46.536Z,87.79
2022-08-28T05:44:17.805Z,88.27
2022-08-28T05:46:48.402Z,88.36
2022-08-28T05:49:17.709Z,88.63
2022-08-28T05:51:45.456Z,88.56
2022-08-28T05:54:14.796Z,88.76
2022-08-28T05:56:44.120Z,88.17
2022-08-28T05:59:13.410Z,87.91
2022-08-28T06:01:45.573Z,88.20
2022-08-28T06:04:17.539Z,88.28
2022-08-28T06:06:46.113Z,88.46
2022-08-28T06:09:15.881Z,88.04
2022-08-28T06:11:46.241Z,88.45
2022-08-28T06:14:16.532Z,87.89
2022-08-28T06:16:49.495Z,87.47
2022-08-28T06:19:18.883Z,87.67
2022-08-28T06:21:48.159Z,87.92
2022-08-28T06:24:15.974Z,87.89
2022-08-28T06:26:43.630Z,87.91
2022-08-28T06:29:13.670Z,86.85
2022-08-28T06:31:41.354Z,86.27
2022-08-28T06:34:10.570Z,85.98
2022-08-28T06:36:41.675Z,86.19
2022-08-28T06:39:11.043Z,85.61
2022-08-28T06:41:42.825Z,85.08
2022-08-28T06:44:12.385Z,84.66
2022-08-28T06:46:40.960Z,85.52
2022-08-28T06:49:10.022Z,84.75
2022-08-28T06:51:38.313Z,85.14
2022-08-28T06:54:06.455Z,84.56
2022-08-28T06:56:34.523Z,83.81
2022-08-28T06:59:02.720Z,84.61
2022-08-28T07:01:32.944Z,85.80
2022-08-28T07:04:03.936Z,84.89
2022-08-28T07:06:35.380Z,83.60
2022-08-28T07:09:05.163Z,80.70
2022-08-28T07:11:34.516Z,81.62
2022-08-28T07:14:02.963Z,81.41
2022-08-28T07:16:33.085Z,80.20
2022-08-28T07:19:03.392Z,79.69
2022-08-28T07:21:31.901Z,79.56
2022-08-28T07:24:03.263Z,78.68
2022-08-28T07:26:30.942Z,77.28
2022-08-28T07:29:09.971Z,78.52
2022-08-28T07:31:40.680Z,78.61
2022-08-28T07:34:09.449Z,78.41
2022-08-28T07:36:37.373Z,76.79
2022-08-28T07:39:07.456Z,77.11
2022-08-28T07:41:39.095Z,77.85
2022-08-28T07:44:25.432Z,77.15
2022-08-28T07:46:54.931Z,77.14
2022-08-28T07:49:23.668Z,75.78
2022-08-28T07:51:54.218Z,74.15
2022-08-28T07:54:23.632Z,74.44
2022-08-28T07:56:52.585Z,70.79
2022-08-28T07:59:22.129Z,71.96
2022-08-28T08:01:52.145Z,70.34
2022-08-28T08:04:21.993Z,70.78
2022-08-28T08:06:55.622Z,71.09
2022-08-28T08:09:27.380Z,70.72
2022-08-28T08:11:57.265Z,71.33
2022-08-28T08:14:25.573Z,70.23
2022-08-28T08:16:53.409Z,70.58
2022-08-28T08:19:21.391Z,69.83
2022-08-28T08:21:53.280Z,70.63
2022-08-28T08:24:25.737Z,70.70
2022-08-28T08:26:59.624Z,69.27
2022-08-28T08:29:29.504Z,69.93
2022-08-28T08:31:58.760Z,68.44
2022-08-28T08:34:26.725Z,68.17
2022-08-28T08:36:55.074Z,68.59
2022-08-28T08:39:22.689Z,69.75
2022-08-28T08:41:53.026Z,68.54
2022-08-28T08:44:28.065Z,67.87
2022-08-28T08:47:14.083Z,67.67
2022-08-28T08:49:48.799Z,65.86
2022-08-28T08:52:28.997Z,66.08
2022-08-28T08:55:07.111Z,65.31
2022-08-28T08:57:37.623Z,65.56
2022-08-28T09:00:13.671Z,65.51
2022-08-28T09:02:49.288Z,63.11
2022-08-28T09:05:19.946Z,63.82
2022-08-28T09:07:56.584Z,63.72
2022-08-28T09:10:25.314Z,63.78
2022-08-28T09:12:58.695Z,63.95
2022-08-28T09:15:32.874Z,63.60
2022-08-28T09:18:11.656Z,63.08
2022-08-28T09:20:39.673Z,63.45
2022-08-28T09:23:12.730Z,64.01
2022-08-28T09:25:48.614Z,63.40
2022-08-28T09:28:22.702Z,62.97
2022-08-28T09:31:04.902Z,63.16
2022-08-28T09:33:41.764Z,63.23
2022-08-28T09:36:32.704Z,61.65
2022-08-28T09:39:09.847Z,61.70
2022-08-28T09:42:11.933Z,60.32
2022-08-28T09:44:52.183Z,61.19
2022-08-28T09:47:48.680Z,60.43
2022-08-28T09:50:20.913Z,59.57
2022-08-28T09:52:48.946Z,60.08
2022-08-28T09:55:26.609Z,58.93
2022-08-28T09:57:55.340Z,59.44
2022-08-28T10:00:23.757Z,59.65
2022-08-28T10:03:03.296Z,59.77
2022-08-28T10:05:41.544Z,59.74
2022-08-28T10:08:27.396Z,57.93
2022-08-28T10:10:58.665Z,57.84
2022-08-28T10:13:31.448Z,57.82
2022-08-28T10:16:21.002Z,58.52
2022-08-28T10:18:56.334Z,58.98
2022-08-28T10:21:30.425Z,58.09
2022-08-28T10:24:27.444Z,59.08
2022-08-28T10:27:06.316Z,58.46
2022-08-28T10:29:45.447Z,58.08
2022-08-28T10:32:28.192Z,57.61
2022-08-28T10:35:06.909Z,56.91
2022-08-28T10:37:49.015Z,57.62
2022-08-28T10:40:24.339Z,57.97
2022-08-28T10:42:56.990Z,57.57
2022-08-28T10:45:26.649Z,56.69
2022-08-28T10:47:58.608Z,56.36
2022-08-28T10:50:31.008Z,57.99
2022-08-28T10:53:02.718Z,56.69
2022-08-28T10:55:36.817Z,56.15
2022-08-28T10:58:24.522Z,56.10
2022-08-28T11:00:56.133Z,57.00
2022-08-28T11:03:34.686Z,56.75
2022-08-28T11:06:11.300Z,56.14
2022-08-28T11:08:40.609Z,54.98
2022-08-28T11:11:14.368Z,53.73
2022-08-28T11:13:51.790Z,53.11
2022-08-28T11:16:22.923Z,52.73
2022-08-28T11:19:43.400Z,53.28
2022-08-28T11:22:16.835Z,52.16
2022-08-28T11:24:50.482Z,52.03
2022-08-28T11:27:26.877Z,50.86
2022-08-28T11:30:04.808Z,50.42
2022-08-28T11:32:58.365Z,48.33
2022-08-28T11:35:49.369Z,50.01
2022-08-28T11:38:52.962Z,49.35
2022-08-28T11:41:26.524Z,49.11
2022-08-28T11:44:29.025Z,47.57
2022-08-28T11:47:36.192Z,47.80
2022-08-28T11:50:12.749Z,45.30
2022-08-28T11:53:07.259Z,46.12
2022-08-28T11:55:51.488Z,43.39
2022-08-28T11:58:28.299Z,45.07
2022-08-28T12:01:04.387Z,44.68
2022-08-28T12:03:36.668Z,43.87
2022-08-28T12:06:05.196Z,43.88
2022-08-28T12:09:10.028Z,45.64
2022-08-28T12:12:05.475Z,44.98
2022-08-28T12:15:07.440Z,44.78
2022-08-28T12:17:47.964Z,43.58
2022-08-28T12:20:39.701Z,43.76
2022-08-28T12:23:39.438Z,43.48
2022-08-28T12:26:10.599Z,40.69
2022-08-28T12:28:47.526Z,41.30
2022-08-28T12:32:02.645Z,40.97
2022-08-28T12:35:02.050Z,40.67
2022-08-28T12:37:51.370Z,40.90
2022-08-28T12:40:24.581Z,40.34
2022-08-28T12:42:55.695Z,39.12
2022-08-28T12:45:27.809Z,39.96
2022-08-28T12:47:59.998Z,39.43
2022-08-28T12:50:32.969Z,37.98
2022-08-28T12:53:01.686Z,37.73
2022-08-28T12:55:29.560Z,36.24
2022-08-28T12:57:57.315Z,35.46
2022-08-28T13:00:33.171Z,33.41
2022-08-28T13:03:01.554Z,32.52
2022-08-28T13:05:36.036Z,32.64
2022-08-28T13:08:07.032Z,30.41
2022-08-28T13:10:37.791Z,29.93
2022-08-28T13:13:08.474Z,28.96
2022-08-28T13:15:57.886Z,30.35
2022-08-28T13:18:45.313Z,28.84
2022-08-28T13:21:33.525Z,28.28
2022-08-28T13:24:42.730Z,28.89
2022-08-28T13:27:22.382Z,28.94
2022-08-28T13:30:00.085Z,27.82
2022-08-28T13:32:30.529Z,28.14
2022-08-28T13:35:24.738Z,29.14
2022-08-28T13:37:55.128Z,30.55
2022-08-28T13:40:55.611Z,31.60
2022-08-28T13:43:15.505Z,31.41
2022-08-28T13:45:48.113Z,30.09
2022-08-28T13:48:17.762Z,28.40
2022-08-28T13:50:47.606Z,28.17
2022-08-28T13:53:20.649Z,28.83
2022-08-28T13:55:50.117Z,28.77
2022-08-28T13:58:19.209Z,27.82
2022-08-28T14:00:48.759Z,27.09
2022-08-28T14:03:34.744Z,27.37
2022-08-28T14:06:03.461Z,26.48
2022-08-28T14:08:31.537Z,26.83
2022-08-28T14:10:59.387Z,26.80
2022-08-28T14:13:28.461Z,26.78
2022-08-28T14:15:57.469Z,28.19
2022-08-28T14:18:25.940Z,29.28
2022-08-28T14:20:53.916Z,29.21
2022-08-28T14:23:22.901Z,27.48
2022-08-28T14:25:50.769Z,26.80
2022-08-28T14:28:18.981Z,26.03
2022-08-28T14:30:50.420Z,24.57
2022-08-28T14:33:20.822Z,24.89
2022-08-28T14:35:49.735Z,23.08
2022-08-28T14:38:17.897Z,23.55
2022-08-28T14:40:46.202Z,22.01
2022-08-28T14:43:15.370Z,21.87
2022-08-28T14:45:45.021Z,21.94
2022-08-28T14:48:14.471Z,21.74
2022-08-28T14:50:43.874Z,21.42
2022-08-28T14:53:12.619Z,20.71
2022-08-28T14:55:42.061Z,22.66
2022-08-28T14:58:09.716Z,22.19
2022-08-28T15:00:42.104Z,21.85
2022-08-28T15:03:10.215Z,22.20
2022-08-28T15:05:39.279Z,22.11
2022-08-28T15:08:08.691Z,22.38
2022-08-28T15:10:38.671Z,21.81
2022-08-28T15:13:07.714Z,22.58
2022-08-28T15:15:36.545Z,22.16
2022-08-28T15:18:04.421Z,20.85
2022-08-28T15:20:32.588Z,21.06
2022-08-28T15:23:01.603Z,20.72
2022-08-28T15:25:29.222Z,19.91
2022-08-28T15:27:56.952Z,20.83
2022-08-28T15:30:24.557Z,21.34
2022-08-28T15:32:52.623Z,20.47
2022-08-28T15:35:20.321Z,21.22
2022-08-28T15:37:47.940Z,21.07
2022-08-28T15:40:34.715Z,20.08
2022-08-28T15:43:02.398Z,20.56
2022-08-28T15:45:30.156Z,20.62
2022-08-28T15:47:58.573Z,21.27
2022-08-28T15:50:26.353Z,22.13
2022-08-28T15:52:53.990Z,21.72
2022-08-28T15:55:23.472Z,21.36
2022-08-28T15:57:51.176Z,21.56
2022-08-28T16:00:19.061Z,21.42
2022-08-28T16:02:46.693Z,21.68
2022-08-28T16:05:14.420Z,20.17
2022-08-28T16:07:42.405Z,20.35
2022-08-28T16:10:13.301Z,20.65
2022-08-28T16:12:42.529Z,19.59
2022-08-28T16:15:12.216Z,19.83
2022-08-28T16:17:39.811Z,19.99
2022-08-28T16:20:12.374Z,19.39
2022-08-28T16:22:41.385Z,19.57
2022-08-28T16:25:10.633Z,19.67
2022-08-28T16:27:38.236Z,20.37
2022-08-28T16:30:15.891Z,20.10
2022-08-28T16:32:59.677Z,19.71
2022-08-28T16:35:27.352Z,21.47
2022-08-28T16:37:54.994Z,23.22
2022-08-28T16:40:23.392Z,22.82
2022-08-28T16:42:52.096Z,23.28
2022-08-28T16:45:21.567Z,23.48
2022-08-28T16:47:50.028Z,23.69
2022-08-28T16:50:19.308Z,23.06
2022-08-28T16:52:47.561Z,23.21
2022-08-28T16:55:15.332Z,23.06
2022-08-28T16:57:43.097Z,24.11
2022-08-28T17:00:13.644Z,25.03
2022-08-28T17:02:43.739Z,24.99
2022-08-28T17:05:12.122Z,26.00
2022-08-28T17:07:40.947Z,26.20
2022-08-28T17:10:10.404Z,26.30
2022-08-28T17:12:38.322Z,26.89
2022-08-28T17:15:07.268Z,27.01
2022-08-28T17:17:35.531Z,27.10
2022-08-28T17:20:07.717Z,27.45
2022-08-28T17:22:34.500Z,26.91
2022-08-28T17:25:07.434Z,28.25
2022-08-28T17:27:36.501Z,28.75
2022-08-28T17:30:05.442Z,28.78
2022-08-28T17:32:33.362Z,29.42
2022-08-28T17:35:05.325Z,31.47
2022-08-28T17:37:33.005Z,32.56
2022-08-28T17:40:00.693Z,32.31
2022-08-28T17:42:28.411Z,33.56
2022-08-28T17:44:56.077Z,34.67
2022-08-28T17:47:30.742Z,34.57
2022-08-28T17:49:59.583Z,35.55
2022-08-28T17:52:29.435Z,38.48
2022-08-28T17:54:57.268Z,40.31
2022-08-28T17:57:25.343Z,42.00
2022-08-28T17:59:52.996Z,44.09
2022-08-28T18:02:20.689Z,44.80
2022-08-28T18:04:48.382Z,46.58
2022-08-28T18:07:16.154Z,47.74
2022-08-28T18:09:45.144Z,48.54
2022-08-28T18:12:13.548Z,49.81
2022-08-28T18:14:41.362Z,51.38
2022-08-28T18:17:10.632Z,52.39
2022-08-28T18:19:39.956Z,54.47
2022-08-28T18:22:08.822Z,56.40
2022-08-28T18:24:36.637Z,56.59
2022-08-28T18:27:07.157Z,57.28
2022-08-28T18:29:35.030Z,58.21
2022-08-28T18:32:02.812Z,58.69
2022-08-28T18:34:32.852Z,58.86
2022-08-28T18:37:00.833Z,59.39
2022-08-28T18:39:29.825Z,59.83
2022-08-28T18:41:58.847Z,60.15
2022-08-28T18:44:27.841Z,60.65
2022-08-28T18:46:55.640Z,61.73
2022-08-28T18:49:23.413Z,62.37
2022-08-28T18:51:51.072Z,63.93
2022-08-28T18:54:20.551Z,64.15
2022-08-28T18:56:49.689Z,65.12
2022-08-28T18:59:18.594Z,64.76
2022-08-28T19:01:47.650Z,65.29
2022-08-28T19:04:15.334Z,65.58
2022-08-28T19:06:43.004Z,66.62
2022-08-28T19:09:20.185Z,67.51
2022-08-28T19:11:48.863Z,67.78
2022-08-28T19:14:16.548Z,68.80
2022-08-28T19:16:44.366Z,68.82
2022-08-28T19:19:15.608Z,68.85
2022-08-28T19:21:43.963Z,69.31
2022-08-28T19:24:11.869Z,69.09
2022-08-28T19:26:39.562Z,70.23
2022-08-28T19:29:07.228Z,70.39
2022-08-28T19:31:37.979Z,70.94
2022-08-28T19:34:07.018Z,71.43
2022-08-28T19:36:36.960Z,71.27
2022-08-28T19:39:04.951Z,71.63
2022-08-28T19:41:36.756Z,71.93
2022-08-28T19:44:05.029Z,72.71
2022-08-28T19:46:34.192Z,72.30
2022-08-28T19:49:03.372Z,72.17
2022-08-28T19:51:31.480Z,72.93
2022-08-28T19:54:00.520Z,73.28
2022-08-28T19:56:29.671Z,73.54
2022-08-28T19:58:59.079Z,73.25
2022-08-28T20:01:29.376Z,73.12
2022-08-28T20:03:57.972Z,73.76
2022-08-28T20:06:25.742Z,74.08
2022-08-28T20:08:53.307Z,74.91
2022-08-28T20:11:24.980Z,75.44
2022-08-28T20:13:53.071Z,75.24
2022-08-28T20:16:21.404Z,75.75
2022-08-28T20:18:50.288Z,75.35
2022-08-28T20:21:36.886Z,76.06
2022-08-28T20:24:07.341Z,76.62
2022-08-28T20:26:36.373Z,78.11
2022-08-28T20:29:04.228Z,77.44
2022-08-28T20:31:31.933Z,77.50
2022-08-28T20:33:59.591Z,78.36
2022-08-28T20:36:27.446Z,77.99
2022-08-28T20:38:55.349Z,77.89
2022-08-28T20:41:23.169Z,77.75
2022-08-28T20:43:52.291Z,78.57
2022-08-28T20:46:20.136Z,79.34
2022-08-28T20:48:47.945Z,79.09
2022-08-28T20:51:15.640Z,78.10
2022-08-28T20:53:43.272Z,78.59
2022-08-28T20:56:11.280Z,79.71
2022-08-28T20:58:39.684Z,79.78
2022-08-28T21:01:08.690Z,80.26
2022-08-28T21:03:36.434Z,80.72
2022-08-28T21:06:04.041Z,80.48
2022-08-28T21:08:31.680Z,79.54
2022-08-28T21:10:59.309Z,80.67
2022-08-28T21:13:27.116Z,80.36
2022-08-28T21:15:54.772Z,81.04
2022-08-28T21:18:23.712Z,80.23
2022-08-28T21:20:51.405Z,80.27
2022-08-28T21:23:19.695Z,81.13
2022-08-28T21:25:48.280Z,81.89
2022-08-28T21:28:16.015Z,81.94
2022-08-28T21:30:43.753Z,82.07
2022-08-28T21:33:11.976Z,82.79
2022-08-28T21:35:42.441Z,83.03
2022-08-28T21:38:10.088Z,82.61
2022-08-28T21:40:37.762Z,84.00
2022-08-28T21:43:05.428Z,83.31
2022-08-28T21:45:33.077Z,82.70
2022-08-28T21:48:00.925Z,83.06
2022-08-28T21:50:29.027Z,82.14
2022-08-28T21:52:58.027Z,83.47
2022-08-28T21:55:25.912Z,83.68
2022-08-28T21:57:53.544Z,84.79
2022-08-28T22:00:24.181Z,83.99
2022-08-28T22:02:52.229Z,84.51
2022-08-28T22:05:20.352Z,84.17
2022-08-28T22:07:48.125Z,84.19
2022-08-28T22:10:17.321Z,84.27
2022-08-28T22:12:44.961Z,84.40
2022-08-28T22:15:13.049Z,84.43
2022-08-28T22:17:40.830Z,84.06
2022-08-28T22:20:09.765Z,84.35
2022-08-28T22:22:54.716Z,84.61
2022-08-28T22:25:24.004Z,85.78
2022-08-28T22:27:51.610Z,85.77
2022-08-28T22:30:19.608Z,85.85
2022-08-28T22:32:47.223Z,86.37
2022-08-28T22:35:14.904Z,85.42
2022-08-28T22:37:42.841Z,85.21
2022-08-28T22:40:13.616Z,84.55
2022-08-28T22:42:43.515Z,84.00
2022-08-28T22:45:11.439Z,83.64
2022-08-28T22:47:39.531Z,83.34
2022-08-28T22:50:08.428Z,83.04
2022-08-28T22:52:37.084Z,82.52
2022-08-28T22:55:06.594Z,82.03
2022-08-28T22:57:34.304Z,81.53
2022-08-28T23:00:05.401Z,81.39
2022-08-28T23:02:33.097Z,81.14
2022-08-28T23:05:00.749Z,81.76
2022-08-28T23:07:28.388Z,81.43
2022-08-28T23:09:56.013Z,81.47
2022-08-28T23:12:24.006Z,83.07
2022-08-28T23:14:51.924Z,82.62
2022-08-28T23:17:20.908Z,82.54
2022-08-28T23:19:49.190Z,82.02
2022-08-28T23:22:17.935Z,81.84
2022-08-28T23:24:46.504Z,82.82
2022-08-28T23:27:35.489Z,83.21
2022-08-28T23:30:02.423Z,84.31
2022-08-28T23:32:31.347Z,83.44
2022-08-28T23:35:01.812Z,83.58
2022-08-28T23:37:29.517Z,83.55
2022-08-28T23:39:58.976Z,82.95
2022-08-28T23:42:28.488Z,82.69
2022-08-28T23:44:56.802Z,82.54
2022-08-28T23:47:24.434Z,82.23
2022-08-28T23:49:53.380Z,81.12
2022-08-28T23:52:20.986Z,81.88
2022-08-28T23:54:49.827Z,82.99
2022-08-28T23:57:17.815Z,83.31
2022-08-28T23:59:45.553Z,83.12
